sensor_id;sensor_type;location;lat;lon;timestamp;temperature;humidity
7564;DHT22;3823;53.586;10.040;2022-08-05T00:01:48;22.30;38.20
7564;DHT22;3823;53.586;10.040;2022-08-05T00:04:15;22.20;39.30
7564;DHT22;3823;53.586;10.040;2022-08-05T00:06:41;22.20;38.60
7564;DHT22;3823;53.586;10.040;2022-08-05T00:09:06;22.20;38.00
7564;DHT22;3823;53.586;10.040;2022-08-05T00:11:32;22.20;37.60
7564;DHT22;3823;53.586;10.040;2022-08-05T00:13:57;22.10;36.70
7564;DHT22;3823;53.586;10.040;2022-08-05T00:16:23;22.10;36.30
7564;DHT22;3823;53.586;10.040;2022-08-05T00:18:49;22.10;36.10
7564;DHT22;3823;53.586;10.040;2022-08-05T00:21:16;22.10;35.50
7564;DHT22;3823;53.586;10.040;2022-08-05T00:23:44;22.00;35.10
7564;DHT22;3823;53.586;10.040;2022-08-05T00:26:11;22.00;35.40
7564;DHT22;3823;53.586;10.040;2022-08-05T00:28:37;21.90;34.60
7564;DHT22;3823;53.586;10.040;2022-08-05T00:31:03;21.90;35.10
7564;DHT22;3823;53.586;10.040;2022-08-05T00:33:30;21.90;34.70
7564;DHT22;3823;53.586;10.040;2022-08-05T00:35:55;21.90;34.10
7564;DHT22;3823;53.586;10.040;2022-08-05T00:38:21;21.80;33.50
7564;DHT22;3823;53.586;10.040;2022-08-05T00:40:55;21.90;33.00
7564;DHT22;3823;53.586;10.040;2022-08-05T00:43:22;21.90;32.70
7564;DHT22;3823;53.586;10.040;2022-08-05T00:45:48;21.80;31.80
7564;DHT22;3823;53.586;10.040;2022-08-05T00:48:16;21.70;30.50
7564;DHT22;3823;53.586;10.040;2022-08-05T00:50:45;21.70;30.80
7564;DHT22;3823;53.586;10.040;2022-08-05T00:53:12;21.70;30.40
7564;DHT22;3823;53.586;10.040;2022-08-05T00:55:37;21.60;29.50
7564;DHT22;3823;53.586;10.040;2022-08-05T00:58:03;21.60;29.80
7564;DHT22;3823;53.586;10.040;2022-08-05T01:00:29;21.60;29.70
7564;DHT22;3823;53.586;10.040;2022-08-05T01:02:56;21.60;29.00
7564;DHT22;3823;53.586;10.040;2022-08-05T01:05:23;21.50;29.10
7564;DHT22;3823;53.586;10.040;2022-08-05T01:07:49;21.50;28.40
7564;DHT22;3823;53.586;10.040;2022-08-05T01:10:15;21.50;28.70
7564;DHT22;3823;53.586;10.040;2022-08-05T01:12:47;21.40;28.80
7564;DHT22;3823;53.586;10.040;2022-08-05T01:15:20;21.50;28.70
7564;DHT22;3823;53.586;10.040;2022-08-05T01:17:49;21.40;28.10
7564;DHT22;3823;53.586;10.040;2022-08-05T01:29:07;21.40;28.00
7564;DHT22;3823;53.586;10.040;2022-08-05T01:31:54;21.40;28.00
7564;DHT22;3823;53.586;10.040;2022-08-05T01:34:40;21.30;27.00
7564;DHT22;3823;53.586;10.040;2022-08-05T01:37:31;21.20;27.40
7564;DHT22;3823;53.586;10.040;2022-08-05T01:40:00;21.20;27.30
7564;DHT22;3823;53.586;10.040;2022-08-05T01:42:29;21.10;28.00
7564;DHT22;3823;53.586;10.040;2022-08-05T01:44:56;21.10;27.50
7564;DHT22;3823;53.586;10.040;2022-08-05T01:47:24;21.10;27.50
7564;DHT22;3823;53.586;10.040;2022-08-05T01:49:51;21.10;27.40
7564;DHT22;3823;53.586;10.040;2022-08-05T01:52:18;21.10;27.70
7564;DHT22;3823;53.586;10.040;2022-08-05T01:54:48;21.10;27.40
7564;DHT22;3823;53.586;10.040;2022-08-05T01:57:22;21.20;27.60
7564;DHT22;3823;53.586;10.040;2022-08-05T01:59:50;21.20;27.40
7564;DHT22;3823;53.586;10.040;2022-08-05T02:02:19;21.20;26.80
7564;DHT22;3823;53.586;10.040;2022-08-05T02:04:45;21.20;27.20
7564;DHT22;3823;53.586;10.040;2022-08-05T02:07:13;21.20;27.20
7564;DHT22;3823;53.586;10.040;2022-08-05T02:09:39;21.20;27.20
7564;DHT22;3823;53.586;10.040;2022-08-05T02:12:15;21.10;27.00
7564;DHT22;3823;53.586;10.040;2022-08-05T02:15:02;21.10;26.60
7564;DHT22;3823;53.586;10.040;2022-08-05T02:17:30;21.00;26.80
7564;DHT22;3823;53.586;10.040;2022-08-05T02:20:00;21.00;26.80
7564;DHT22;3823;53.586;10.040;2022-08-05T02:22:47;21.10;26.30
7564;DHT22;3823;53.586;10.040;2022-08-05T02:25:21;21.00;27.20
7564;DHT22;3823;53.586;10.040;2022-08-05T02:27:48;20.80;27.10
7564;DHT22;3823;53.586;10.040;2022-08-05T02:30:16;20.80;28.00
7564;DHT22;3823;53.586;10.040;2022-08-05T02:32:48;20.90;30.20
7564;DHT22;3823;53.586;10.040;2022-08-05T02:35:19;20.90;29.90
7564;DHT22;3823;53.586;10.040;2022-08-05T02:37:45;20.80;30.00
7564;DHT22;3823;53.586;10.040;2022-08-05T02:40:12;20.80;30.20
7564;DHT22;3823;53.586;10.040;2022-08-05T02:42:38;20.60;29.30
7564;DHT22;3823;53.586;10.040;2022-08-05T02:45:06;20.50;29.10
7564;DHT22;3823;53.586;10.040;2022-08-05T02:47:33;20.40;29.60
7564;DHT22;3823;53.586;10.040;2022-08-05T02:50:07;20.50;31.70
7564;DHT22;3823;53.586;10.040;2022-08-05T02:52:33;20.60;35.10
7564;DHT22;3823;53.586;10.040;2022-08-05T02:55:00;20.40;39.50
7564;DHT22;3823;53.586;10.040;2022-08-05T02:57:26;20.20;43.80
7564;DHT22;3823;53.586;10.040;2022-08-05T02:59:53;20.20;52.20
7564;DHT22;3823;53.586;10.040;2022-08-05T03:02:25;20.20;55.30
7564;DHT22;3823;53.586;10.040;2022-08-05T03:04:53;20.10;49.10
7564;DHT22;3823;53.586;10.040;2022-08-05T03:07:20;20.10;56.40
7564;DHT22;3823;53.586;10.040;2022-08-05T03:09:46;20.00;54.50
7564;DHT22;3823;53.586;10.040;2022-08-05T03:12:31;20.00;58.20
7564;DHT22;3823;53.586;10.040;2022-08-05T03:14:57;19.90;53.60
7564;DHT22;3823;53.586;10.040;2022-08-05T03:17:23;20.00;59.30
7564;DHT22;3823;53.586;10.040;2022-08-05T03:19:48;19.90;57.80
7564;DHT22;3823;53.586;10.040;2022-08-05T03:22:14;19.90;56.50
7564;DHT22;3823;53.586;10.040;2022-08-05T03:24:41;19.90;59.90
7564;DHT22;3823;53.586;10.040;2022-08-05T03:27:07;19.80;57.80
7564;DHT22;3823;53.586;10.040;2022-08-05T03:29:33;19.80;59.00
7564;DHT22;3823;53.586;10.040;2022-08-05T03:31:59;19.80;55.40
7564;DHT22;3823;53.586;10.040;2022-08-05T03:34:26;19.80;55.90
7564;DHT22;3823;53.586;10.040;2022-08-05T03:36:52;19.80;54.30
7564;DHT22;3823;53.586;10.040;2022-08-05T03:39:18;19.80;58.10
7564;DHT22;3823;53.586;10.040;2022-08-05T03:41:43;19.80;53.50
7564;DHT22;3823;53.586;10.040;2022-08-05T03:44:09;19.80;57.40
7564;DHT22;3823;53.586;10.040;2022-08-05T03:46:35;19.80;54.10
7564;DHT22;3823;53.586;10.040;2022-08-05T03:49:01;19.80;55.20
7564;DHT22;3823;53.586;10.040;2022-08-05T03:51:34;19.80;56.00
7564;DHT22;3823;53.586;10.040;2022-08-05T03:54:13;19.80;57.00
7564;DHT22;3823;53.586;10.040;2022-08-05T03:56:44;19.80;57.70
7564;DHT22;3823;53.586;10.040;2022-08-05T03:59:23;19.70;59.20
7564;DHT22;3823;53.586;10.040;2022-08-05T04:01:52;19.70;60.20
7564;DHT22;3823;53.586;10.040;2022-08-05T04:04:20;19.60;59.60
7564;DHT22;3823;53.586;10.040;2022-08-05T04:06:47;19.70;58.10
7564;DHT22;3823;53.586;10.040;2022-08-05T04:09:14;19.70;60.00
7564;DHT22;3823;53.586;10.040;2022-08-05T04:11:41;19.70;56.30
7564;DHT22;3823;53.586;10.040;2022-08-05T04:14:06;19.80;57.40
7564;DHT22;3823;53.586;10.040;2022-08-05T04:16:33;19.70;56.90
7564;DHT22;3823;53.586;10.040;2022-08-05T04:19:03;19.70;58.90
7564;DHT22;3823;53.586;10.040;2022-08-05T04:21:28;19.70;58.70
7564;DHT22;3823;53.586;10.040;2022-08-05T04:23:54;19.70;57.60
7564;DHT22;3823;53.586;10.040;2022-08-05T04:26:20;19.70;56.50
7564;DHT22;3823;53.586;10.040;2022-08-05T04:28:46;19.70;55.70
7564;DHT22;3823;53.586;10.040;2022-08-05T04:31:11;19.70;58.10
7564;DHT22;3823;53.586;10.040;2022-08-05T04:33:37;19.70;58.40
7564;DHT22;3823;53.586;10.040;2022-08-05T04:36:02;19.60;55.30
7564;DHT22;3823;53.586;10.040;2022-08-05T04:38:28;19.60;56.40
7564;DHT22;3823;53.586;10.040;2022-08-05T04:40:54;19.70;56.80
7564;DHT22;3823;53.586;10.040;2022-08-05T04:43:19;19.60;55.90
7564;DHT22;3823;53.586;10.040;2022-08-05T04:45:45;19.60;54.50
7564;DHT22;3823;53.586;10.040;2022-08-05T04:48:13;19.60;54.40
7564;DHT22;3823;53.586;10.040;2022-08-05T04:50:47;19.50;54.60
7564;DHT22;3823;53.586;10.040;2022-08-05T04:53:15;19.50;52.70
7564;DHT22;3823;53.586;10.040;2022-08-05T04:55:41;19.50;53.60
7564;DHT22;3823;53.586;10.040;2022-08-05T04:58:09;19.40;55.70
7564;DHT22;3823;53.586;10.040;2022-08-05T05:00:36;19.50;56.50
7564;DHT22;3823;53.586;10.040;2022-08-05T05:03:02;19.50;55.20
7564;DHT22;3823;53.586;10.040;2022-08-05T05:05:29;19.50;54.40
7564;DHT22;3823;53.586;10.040;2022-08-05T05:08:05;19.50;54.80
7564;DHT22;3823;53.586;10.040;2022-08-05T05:10:44;19.50;55.70
7564;DHT22;3823;53.586;10.040;2022-08-05T05:13:13;19.50;55.00
7564;DHT22;3823;53.586;10.040;2022-08-05T05:15:40;19.50;53.50
7564;DHT22;3823;53.586;10.040;2022-08-05T05:18:06;19.50;57.40
7564;DHT22;3823;53.586;10.040;2022-08-05T05:20:32;19.50;54.60
7564;DHT22;3823;53.586;10.040;2022-08-05T05:22:59;19.50;56.00
7564;DHT22;3823;53.586;10.040;2022-08-05T05:25:26;19.50;55.70
7564;DHT22;3823;53.586;10.040;2022-08-05T05:27:51;19.50;56.60
7564;DHT22;3823;53.586;10.040;2022-08-05T05:30:18;19.50;55.10
7564;DHT22;3823;53.586;10.040;2022-08-05T05:32:43;19.50;54.60
7564;DHT22;3823;53.586;10.040;2022-08-05T05:35:09;19.50;55.60
7564;DHT22;3823;53.586;10.040;2022-08-05T05:37:52;19.50;55.00
7564;DHT22;3823;53.586;10.040;2022-08-05T05:40:19;19.50;55.00
7564;DHT22;3823;53.586;10.040;2022-08-05T05:42:46;19.50;55.50
7564;DHT22;3823;53.586;10.040;2022-08-05T05:45:12;19.60;53.30
7564;DHT22;3823;53.586;10.040;2022-08-05T05:47:37;19.50;53.60
7564;DHT22;3823;53.586;10.040;2022-08-05T05:50:04;19.60;55.00
7564;DHT22;3823;53.586;10.040;2022-08-05T05:52:29;19.50;54.00
7564;DHT22;3823;53.586;10.040;2022-08-05T05:55:01;19.50;52.70
7564;DHT22;3823;53.586;10.040;2022-08-05T05:57:27;19.50;54.50
7564;DHT22;3823;53.586;10.040;2022-08-05T05:59:53;19.50;54.40
7564;DHT22;3823;53.586;10.040;2022-08-05T06:02:18;19.50;54.30
7564;DHT22;3823;53.586;10.040;2022-08-05T06:04:44;19.50;51.60
7564;DHT22;3823;53.586;10.040;2022-08-05T06:07:09;19.50;53.10
7564;DHT22;3823;53.586;10.040;2022-08-05T06:09:35;19.40;52.20
7564;DHT22;3823;53.586;10.040;2022-08-05T06:12:01;19.50;52.30
7564;DHT22;3823;53.586;10.040;2022-08-05T06:14:26;19.50;52.90
7564;DHT22;3823;53.586;10.040;2022-08-05T06:16:52;19.50;52.80
7564;DHT22;3823;53.586;10.040;2022-08-05T06:19:18;19.60;56.70
7564;DHT22;3823;53.586;10.040;2022-08-05T06:21:43;19.50;55.90
7564;DHT22;3823;53.586;10.040;2022-08-05T06:24:10;19.60;54.00
7564;DHT22;3823;53.586;10.040;2022-08-05T06:26:36;19.50;51.80
7564;DHT22;3823;53.586;10.040;2022-08-05T06:29:02;19.60;54.50
7564;DHT22;3823;53.586;10.040;2022-08-05T06:31:30;19.70;54.00
7564;DHT22;3823;53.586;10.040;2022-08-05T06:33:55;19.60;54.60
7564;DHT22;3823;53.586;10.040;2022-08-05T06:36:21;19.70;54.40
7564;DHT22;3823;53.586;10.040;2022-08-05T06:38:47;19.80;53.00
7564;DHT22;3823;53.586;10.040;2022-08-05T06:41:17;19.90;51.90
7564;DHT22;3823;53.586;10.040;2022-08-05T06:43:43;19.90;52.10
7564;DHT22;3823;53.586;10.040;2022-08-05T06:46:09;20.00;51.70
7564;DHT22;3823;53.586;10.040;2022-08-05T06:48:35;20.00;50.10
7564;DHT22;3823;53.586;10.040;2022-08-05T06:51:02;20.20;52.80
7564;DHT22;3823;53.586;10.040;2022-08-05T06:53:28;20.40;52.10
7564;DHT22;3823;53.586;10.040;2022-08-05T06:55:58;20.60;46.50
7564;DHT22;3823;53.586;10.040;2022-08-05T06:58:25;20.80;47.80
7564;DHT22;3823;53.586;10.040;2022-08-05T07:00:51;21.00;46.20
7564;DHT22;3823;53.586;10.040;2022-08-05T07:03:17;21.30;46.10
7564;DHT22;3823;53.586;10.040;2022-08-05T07:05:43;21.50;41.00
7564;DHT22;3823;53.586;10.040;2022-08-05T07:08:08;21.60;40.90
7564;DHT22;3823;53.586;10.040;2022-08-05T07:10:34;21.60;39.40
7564;DHT22;3823;53.586;10.040;2022-08-05T07:13:00;21.50;40.20
7564;DHT22;3823;53.586;10.040;2022-08-05T07:15:44;21.30;40.30
7564;DHT22;3823;53.586;10.040;2022-08-05T07:18:28;21.20;41.00
7564;DHT22;3823;53.586;10.040;2022-08-05T07:20:53;21.10;41.40
7564;DHT22;3823;53.586;10.040;2022-08-05T07:23:19;21.10;41.30
7564;DHT22;3823;53.586;10.040;2022-08-05T07:25:44;21.10;39.60
7564;DHT22;3823;53.586;10.040;2022-08-05T07:28:10;21.20;37.10
7564;DHT22;3823;53.586;10.040;2022-08-05T07:30:36;21.20;39.40
7564;DHT22;3823;53.586;10.040;2022-08-05T07:33:06;21.10;40.50
7564;DHT22;3823;53.586;10.040;2022-08-05T07:35:32;21.00;41.10
7564;DHT22;3823;53.586;10.040;2022-08-05T07:37:58;20.90;43.00
7564;DHT22;3823;53.586;10.040;2022-08-05T07:40:23;20.90;41.10
7564;DHT22;3823;53.586;10.040;2022-08-05T07:42:49;20.90;41.80
7564;DHT22;3823;53.586;10.040;2022-08-05T07:45:14;20.90;43.90
7564;DHT22;3823;53.586;10.040;2022-08-05T07:47:41;20.80;42.00
7564;DHT22;3823;53.586;10.040;2022-08-05T07:50:07;20.80;41.40
7564;DHT22;3823;53.586;10.040;2022-08-05T07:52:38;20.70;42.30
7564;DHT22;3823;53.586;10.040;2022-08-05T07:55:05;20.70;41.10
7564;DHT22;3823;53.586;10.040;2022-08-05T07:57:30;20.60;43.50
7564;DHT22;3823;53.586;10.040;2022-08-05T07:59:56;20.60;44.80
7564;DHT22;3823;53.586;10.040;2022-08-05T08:02:26;20.60;46.20
7564;DHT22;3823;53.586;10.040;2022-08-05T08:04:52;20.50;46.30
7564;DHT22;3823;53.586;10.040;2022-08-05T08:07:18;20.50;48.20
7564;DHT22;3823;53.586;10.040;2022-08-05T08:09:45;20.50;50.80
7564;DHT22;3823;53.586;10.040;2022-08-05T08:12:11;20.50;52.00
7564;DHT22;3823;53.586;10.040;2022-08-05T08:14:43;20.50;49.90
7564;DHT22;3823;53.586;10.040;2022-08-05T08:17:09;20.40;50.90
7564;DHT22;3823;53.586;10.040;2022-08-05T08:19:39;20.40;51.10
7564;DHT22;3823;53.586;10.040;2022-08-05T08:22:06;20.40;49.70
7564;DHT22;3823;53.586;10.040;2022-08-05T08:24:32;20.40;52.40
7564;DHT22;3823;53.586;10.040;2022-08-05T08:26:58;20.30;52.70
7564;DHT22;3823;53.586;10.040;2022-08-05T08:29:23;20.30;53.90
7564;DHT22;3823;53.586;10.040;2022-08-05T08:31:50;20.20;52.80
7564;DHT22;3823;53.586;10.040;2022-08-05T08:34:17;20.20;53.50
7564;DHT22;3823;53.586;10.040;2022-08-05T08:36:42;20.30;55.60
7564;DHT22;3823;53.586;10.040;2022-08-05T08:39:08;20.20;56.90
7564;DHT22;3823;53.586;10.040;2022-08-05T08:41:36;20.20;54.40
7564;DHT22;3823;53.586;10.040;2022-08-05T08:44:02;20.30;55.60
7564;DHT22;3823;53.586;10.040;2022-08-05T08:46:30;20.30;56.10
7564;DHT22;3823;53.586;10.040;2022-08-05T08:48:56;20.30;55.90
7564;DHT22;3823;53.586;10.040;2022-08-05T08:51:23;20.30;52.70
7564;DHT22;3823;53.586;10.040;2022-08-05T08:53:52;20.30;54.30
7564;DHT22;3823;53.586;10.040;2022-08-05T08:56:18;20.30;54.50
7564;DHT22;3823;53.586;10.040;2022-08-05T08:58:45;20.20;55.70
7564;DHT22;3823;53.586;10.040;2022-08-05T09:01:11;20.20;54.40
7564;DHT22;3823;53.586;10.040;2022-08-05T09:03:37;20.20;53.60
7564;DHT22;3823;53.586;10.040;2022-08-05T09:06:04;20.10;54.60
7564;DHT22;3823;53.586;10.040;2022-08-05T09:08:30;20.10;55.90
7564;DHT22;3823;53.586;10.040;2022-08-05T09:10:56;20.10;48.90
7564;DHT22;3823;53.586;10.040;2022-08-05T09:13:23;20.00;52.40
7564;DHT22;3823;53.586;10.040;2022-08-05T09:15:49;20.10;53.00
7564;DHT22;3823;53.586;10.040;2022-08-05T09:18:15;20.00;51.10
7564;DHT22;3823;53.586;10.040;2022-08-05T09:20:41;20.10;55.00
7564;DHT22;3823;53.586;10.040;2022-08-05T09:23:10;20.10;50.70
7564;DHT22;3823;53.586;10.040;2022-08-05T09:25:38;20.10;52.80
7564;DHT22;3823;53.586;10.040;2022-08-05T09:28:14;20.10;50.10
7564;DHT22;3823;53.586;10.040;2022-08-05T09:33:10;20.10;53.20
7564;DHT22;3823;53.586;10.040;2022-08-05T09:35:36;20.10;49.20
7564;DHT22;3823;53.586;10.040;2022-08-05T09:38:05;20.10;47.60
7564;DHT22;3823;53.586;10.040;2022-08-05T09:40:33;20.00;49.50
7564;DHT22;3823;53.586;10.040;2022-08-05T09:43:05;20.00;49.30
7564;DHT22;3823;53.586;10.040;2022-08-05T09:45:39;20.10;50.50
7564;DHT22;3823;53.586;10.040;2022-08-05T09:48:22;20.00;50.40
7564;DHT22;3823;53.586;10.040;2022-08-05T09:50:53;20.00;50.20
7564;DHT22;3823;53.586;10.040;2022-08-05T09:53:18;20.00;49.70
7564;DHT22;3823;53.586;10.040;2022-08-05T09:55:44;20.10;49.20
7564;DHT22;3823;53.586;10.040;2022-08-05T09:58:14;20.10;49.10
7564;DHT22;3823;53.586;10.040;2022-08-05T10:00:55;20.10;50.40
7564;DHT22;3823;53.586;10.040;2022-08-05T10:03:21;20.20;46.20
7564;DHT22;3823;53.586;10.040;2022-08-05T10:06:00;20.20;48.00
7564;DHT22;3823;53.586;10.040;2022-08-05T10:08:26;20.20;47.40
7564;DHT22;3823;53.586;10.040;2022-08-05T10:10:52;20.30;46.90
7564;DHT22;3823;53.586;10.040;2022-08-05T10:13:38;20.30;48.10
7564;DHT22;3823;53.586;10.040;2022-08-05T10:16:05;20.30;47.10
7564;DHT22;3823;53.586;10.040;2022-08-05T10:18:32;20.20;45.50
7564;DHT22;3823;53.586;10.040;2022-08-05T10:21:04;20.20;44.90
7564;DHT22;3823;53.586;10.040;2022-08-05T10:23:35;20.10;44.90
7564;DHT22;3823;53.586;10.040;2022-08-05T10:26:07;20.10;48.50
7564;DHT22;3823;53.586;10.040;2022-08-05T10:28:34;20.10;47.80
7564;DHT22;3823;53.586;10.040;2022-08-05T10:31:00;20.10;49.60
7564;DHT22;3823;53.586;10.040;2022-08-05T10:33:29;20.10;47.30
7564;DHT22;3823;53.586;10.040;2022-08-05T10:35:56;20.00;46.20
7564;DHT22;3823;53.586;10.040;2022-08-05T10:38:24;20.00;46.30
7564;DHT22;3823;53.586;10.040;2022-08-05T10:40:55;19.90;48.70
7564;DHT22;3823;53.586;10.040;2022-08-05T10:43:54;19.90;48.10
7564;DHT22;3823;53.586;10.040;2022-08-05T10:46:22;19.80;51.60
7564;DHT22;3823;53.586;10.040;2022-08-05T10:48:54;19.70;53.20
7564;DHT22;3823;53.586;10.040;2022-08-05T10:51:21;19.70;52.40
7564;DHT22;3823;53.586;10.040;2022-08-05T10:56:17;19.70;55.30
7564;DHT22;3823;53.586;10.040;2022-08-05T10:59:05;19.70;55.00
7564;DHT22;3823;53.586;10.040;2022-08-05T11:01:39;19.60;56.30
7564;DHT22;3823;53.586;10.040;2022-08-05T11:06:32;19.60;57.60
7564;DHT22;3823;53.586;10.040;2022-08-05T11:09:25;19.50;52.50
7564;DHT22;3823;53.586;10.040;2022-08-05T11:11:52;19.50;57.30
7564;DHT22;3823;53.586;10.040;2022-08-05T11:14:27;19.50;56.20
7564;DHT22;3823;53.586;10.040;2022-08-05T11:19:55;19.60;54.50
7564;DHT22;3823;53.586;10.040;2022-08-05T11:25:28;19.40;52.50
7564;DHT22;3823;53.586;10.040;2022-08-05T11:27:54;19.30;48.40
7564;DHT22;3823;53.586;10.040;2022-08-05T11:30:20;19.20;51.60
7564;DHT22;3823;53.586;10.040;2022-08-05T11:32:46;19.20;52.10
7564;DHT22;3823;53.586;10.040;2022-08-05T11:38:15;19.10;54.70
7564;DHT22;3823;53.586;10.040;2022-08-05T11:41:02;19.10;55.50
7564;DHT22;3823;53.586;10.040;2022-08-05T11:43:29;19.10;55.20
7564;DHT22;3823;53.586;10.040;2022-08-05T11:45:55;19.10;50.10
7564;DHT22;3823;53.586;10.040;2022-08-05T11:48:21;19.10;55.30
7564;DHT22;3823;53.586;10.040;2022-08-05T11:50:48;19.00;51.20
7564;DHT22;3823;53.586;10.040;2022-08-05T11:53:15;19.00;49.30
7564;DHT22;3823;53.586;10.040;2022-08-05T11:56:01;19.00;53.60
7564;DHT22;3823;53.586;10.040;2022-08-05T11:58:31;19.00;55.20
7564;DHT22;3823;53.586;10.040;2022-08-05T12:01:07;19.00;54.60
7564;DHT22;3823;53.586;10.040;2022-08-05T12:03:44;19.10;55.70
7564;DHT22;3823;53.586;10.040;2022-08-05T12:06:11;19.00;53.30
7564;DHT22;3823;53.586;10.040;2022-08-05T12:11:07;19.10;54.10
7564;DHT22;3823;53.586;10.040;2022-08-05T12:13:36;19.20;54.50
7564;DHT22;3823;53.586;10.040;2022-08-05T12:16:03;19.10;53.40
7564;DHT22;3823;53.586;10.040;2022-08-05T12:18:35;19.20;54.90
7564;DHT22;3823;53.586;10.040;2022-08-05T12:21:15;19.20;50.10
7564;DHT22;3823;53.586;10.040;2022-08-05T12:24:00;19.30;53.70
7564;DHT22;3823;53.586;10.040;2022-08-05T12:26:37;19.30;52.30
7564;DHT22;3823;53.586;10.040;2022-08-05T12:29:11;19.40;53.40
7564;DHT22;3823;53.586;10.040;2022-08-05T12:31:38;19.40;55.20
7564;DHT22;3823;53.586;10.040;2022-08-05T12:34:06;19.50;51.80
7564;DHT22;3823;53.586;10.040;2022-08-05T12:36:33;19.60;55.60
7564;DHT22;3823;53.586;10.040;2022-08-05T12:38:59;19.50;55.20
7564;DHT22;3823;53.586;10.040;2022-08-05T12:41:30;19.60;55.40
7564;DHT22;3823;53.586;10.040;2022-08-05T12:44:00;19.70;57.10
7564;DHT22;3823;53.586;10.040;2022-08-05T12:46:31;19.80;58.20
7564;DHT22;3823;53.586;10.040;2022-08-05T12:49:06;19.90;53.80
7564;DHT22;3823;53.586;10.040;2022-08-05T12:51:52;20.00;52.40
7564;DHT22;3823;53.586;10.040;2022-08-05T12:54:24;20.00;53.70
7564;DHT22;3823;53.586;10.040;2022-08-05T12:56:56;20.00;51.50
7564;DHT22;3823;53.586;10.040;2022-08-05T12:59:27;20.10;57.60
7564;DHT22;3823;53.586;10.040;2022-08-05T13:04:26;20.10;55.30
7564;DHT22;3823;53.586;10.040;2022-08-05T13:06:56;20.20;54.10
7564;DHT22;3823;53.586;10.040;2022-08-05T13:09:22;20.30;48.00
7564;DHT22;3823;53.586;10.040;2022-08-05T13:11:48;20.60;50.70
7564;DHT22;3823;53.586;10.040;2022-08-05T13:14:17;20.70;50.90
7564;DHT22;3823;53.586;10.040;2022-08-05T13:16:47;21.10;47.80
7564;DHT22;3823;53.586;10.040;2022-08-05T13:19:13;21.40;46.80
7564;DHT22;3823;53.586;10.040;2022-08-05T13:21:39;21.50;37.90
7564;DHT22;3823;53.586;10.040;2022-08-05T13:24:05;21.70;38.60
7564;DHT22;3823;53.586;10.040;2022-08-05T13:26:32;21.90;36.00
7564;DHT22;3823;53.586;10.040;2022-08-05T13:28:57;22.10;35.90
7564;DHT22;3823;53.586;10.040;2022-08-05T13:31:23;22.20;32.00
7564;DHT22;3823;53.586;10.040;2022-08-05T13:33:49;22.00;29.70
7564;DHT22;3823;53.586;10.040;2022-08-05T13:36:14;22.00;28.80
7564;DHT22;3823;53.586;10.040;2022-08-05T13:38:40;22.00;26.60
7564;DHT22;3823;53.586;10.040;2022-08-05T13:41:05;21.90;28.50
7564;DHT22;3823;53.586;10.040;2022-08-05T13:43:31;21.90;27.60
7564;DHT22;3823;53.586;10.040;2022-08-05T13:45:57;22.00;28.20
7564;DHT22;3823;53.586;10.040;2022-08-05T13:48:22;22.10;25.00
7564;DHT22;3823;53.586;10.040;2022-08-05T13:50:48;22.20;25.70
7564;DHT22;3823;53.586;10.040;2022-08-05T13:53:14;22.30;26.70
7564;DHT22;3823;53.586;10.040;2022-08-05T13:55:39;22.30;26.90
7564;DHT22;3823;53.586;10.040;2022-08-05T13:58:05;22.20;25.80
7564;DHT22;3823;53.586;10.040;2022-08-05T14:00:30;22.20;25.10
7564;DHT22;3823;53.586;10.040;2022-08-05T14:02:56;22.20;25.30
7564;DHT22;3823;53.586;10.040;2022-08-05T14:05:21;22.30;25.70
7564;DHT22;3823;53.586;10.040;2022-08-05T14:07:47;22.20;24.80
7564;DHT22;3823;53.586;10.040;2022-08-05T14:10:17;22.20;24.60
7564;DHT22;3823;53.586;10.040;2022-08-05T14:12:46;22.10;24.20
7564;DHT22;3823;53.586;10.040;2022-08-05T14:15:12;21.90;25.80
7564;DHT22;3823;53.586;10.040;2022-08-05T14:17:38;21.80;24.30
7564;DHT22;3823;53.586;10.040;2022-08-05T14:20:04;21.80;24.60
7564;DHT22;3823;53.586;10.040;2022-08-05T14:22:31;21.80;25.60
7564;DHT22;3823;53.586;10.040;2022-08-05T14:24:57;21.80;26.90
7564;DHT22;3823;53.586;10.040;2022-08-05T14:27:22;21.80;26.70
7564;DHT22;3823;53.586;10.040;2022-08-05T14:29:48;21.70;25.80
7564;DHT22;3823;53.586;10.040;2022-08-05T14:32:13;21.70;25.60
7564;DHT22;3823;53.586;10.040;2022-08-05T14:34:39;21.60;25.10
7564;DHT22;3823;53.586;10.040;2022-08-05T14:37:05;21.60;26.70
7564;DHT22;3823;53.586;10.040;2022-08-05T14:39:31;21.60;26.30
7564;DHT22;3823;53.586;10.040;2022-08-05T14:41:57;21.50;26.70
7564;DHT22;3823;53.586;10.040;2022-08-05T14:44:22;21.60;26.30
7564;DHT22;3823;53.586;10.040;2022-08-05T14:46:48;21.50;26.90
7564;DHT22;3823;53.586;10.040;2022-08-05T14:49:14;21.20;27.30
7564;DHT22;3823;53.586;10.040;2022-08-05T14:51:40;21.20;28.00
7564;DHT22;3823;53.586;10.040;2022-08-05T14:54:06;21.20;27.30
7564;DHT22;3823;53.586;10.040;2022-08-05T14:56:32;21.30;26.90
7564;DHT22;3823;53.586;10.040;2022-08-05T14:58:58;21.30;27.50
7564;DHT22;3823;53.586;10.040;2022-08-05T15:01:24;21.40;28.50
7564;DHT22;3823;53.586;10.040;2022-08-05T15:03:50;21.50;27.60
7564;DHT22;3823;53.586;10.040;2022-08-05T15:06:15;21.60;27.40
7564;DHT22;3823;53.586;10.040;2022-08-05T15:08:42;21.70;26.90
7564;DHT22;3823;53.586;10.040;2022-08-05T15:11:08;21.70;26.70
7564;DHT22;3823;53.586;10.040;2022-08-05T15:13:34;21.70;26.60
7564;DHT22;3823;53.586;10.040;2022-08-05T15:16:00;21.70;26.90
7564;DHT22;3823;53.586;10.040;2022-08-05T15:18:26;21.70;27.20
7564;DHT22;3823;53.586;10.040;2022-08-05T15:20:52;21.80;28.80
7564;DHT22;3823;53.586;10.040;2022-08-05T15:23:17;21.90;27.60
7564;DHT22;3823;53.586;10.040;2022-08-05T15:25:43;22.10;26.30
7564;DHT22;3823;53.586;10.040;2022-08-05T15:28:08;21.80;25.90
7564;DHT22;3823;53.586;10.040;2022-08-05T15:30:34;21.70;26.80
7564;DHT22;3823;53.586;10.040;2022-08-05T15:33:03;21.50;27.30
7564;DHT22;3823;53.586;10.040;2022-08-05T15:35:29;21.40;25.80
7564;DHT22;3823;53.586;10.040;2022-08-05T15:37:55;21.40;27.40
7564;DHT22;3823;53.586;10.040;2022-08-05T15:40:21;21.30;27.80
7564;DHT22;3823;53.586;10.040;2022-08-05T15:42:47;21.20;34.80
7564;DHT22;3823;53.586;10.040;2022-08-05T15:45:12;21.10;40.20
7564;DHT22;3823;53.586;10.040;2022-08-05T15:47:39;20.80;52.30
7564;DHT22;3823;53.586;10.040;2022-08-05T15:50:06;20.60;51.40
7564;DHT22;3823;53.586;10.040;2022-08-05T15:52:33;20.60;49.70
7564;DHT22;3823;53.586;10.040;2022-08-05T15:54:59;20.50;50.40
7564;DHT22;3823;53.586;10.040;2022-08-05T15:57:24;20.40;53.70
7564;DHT22;3823;53.586;10.040;2022-08-05T15:59:50;20.40;54.90
7564;DHT22;3823;53.586;10.040;2022-08-05T16:02:15;20.50;55.10
7564;DHT22;3823;53.586;10.040;2022-08-05T16:04:42;20.50;52.40
7564;DHT22;3823;53.586;10.040;2022-08-05T16:07:08;20.50;46.90
7564;DHT22;3823;53.586;10.040;2022-08-05T16:09:33;20.60;49.60
7564;DHT22;3823;53.586;10.040;2022-08-05T16:11:59;20.60;46.50
7564;DHT22;3823;53.586;10.040;2022-08-05T16:14:25;20.60;53.60
7564;DHT22;3823;53.586;10.040;2022-08-05T16:16:51;20.60;48.40
7564;DHT22;3823;53.586;10.040;2022-08-05T16:19:17;20.70;42.80
7564;DHT22;3823;53.586;10.040;2022-08-05T16:21:42;20.70;45.80